createdAt,value
2022-09-17T03:02:35.800Z,18.38
2022-09-17T03:05:04.225Z,19.13
2022-09-17T03:07:32.725Z,22.92
2022-09-17T03:09:59.678Z,21.98
2022-09-17T03:12:26.827Z,21.52
2022-09-17T03:14:53.268Z,14.18
2022-09-17T03:17:19.784Z,24.65
2022-09-17T03:19:46.181Z,16.52
2022-09-17T03:22:12.655Z,18.40
2022-09-17T03:24:39.111Z,18.75
2022-09-17T03:27:05.707Z,18.58
2022-09-17T03:29:32.097Z,14.10
2022-09-17T03:31:59.293Z,18.02
2022-09-17T03:34:25.725Z,22.58
2022-09-17T03:36:52.382Z,12.45
2022-09-17T03:39:18.832Z,21.88
2022-09-17T03:41:45.342Z,16.05
2022-09-17T03:44:11.771Z,13.93
2022-09-17T03:46:38.372Z,13.43
2022-09-17T03:49:04.920Z,16.50
2022-09-17T03:51:31.366Z,10.77
2022-09-17T03:53:57.787Z,17.13
2022-09-17T03:56:24.234Z,12.55
2022-09-17T03:58:50.700Z,16.70
2022-09-17T04:01:17.308Z,13.05
2022-09-17T04:03:45.278Z,12.63
2022-09-17T04:06:11.870Z,14.60
2022-09-17T04:08:38.353Z,13.98
2022-09-17T04:11:05.025Z,17.95
2022-09-17T04:13:31.503Z,15.57
2022-09-17T04:15:58.119Z,21.45
2022-09-17T04:18:24.617Z,14.32
2022-09-17T04:20:51.137Z,15.25
2022-09-17T04:23:17.590Z,13.32
2022-09-17T04:25:44.223Z,13.63
2022-09-17T04:28:11.418Z,16.88
2022-09-17T04:30:38.444Z,12.27
2022-09-17T04:33:05.311Z,15.23
2022-09-17T04:35:31.823Z,12.77
2022-09-17T04:37:58.318Z,16.38
2022-09-17T04:40:26.095Z,12.02
2022-09-17T04:42:56.869Z,20.50
2022-09-17T04:45:23.665Z,19.63
2022-09-17T04:47:52.968Z,16.00
2022-09-17T04:50:19.495Z,16.30
2022-09-17T04:52:46.483Z,14.85
2022-09-17T04:55:13.877Z,11.43
2022-09-17T04:57:46.242Z,13.57
2022-09-17T05:00:13.557Z,13.73
2022-09-17T05:02:40.068Z,11.68
2022-09-17T05:05:06.681Z,22.08
2022-09-17T05:07:33.151Z,15.27
2022-09-17T05:09:59.569Z,20.02
2022-09-17T05:12:25.975Z,17.70
2022-09-17T05:14:52.441Z,21.98
2022-09-17T05:17:18.878Z,10.27
2022-09-17T05:19:45.274Z,23.85
2022-09-17T05:22:11.743Z,18.45
2022-09-17T05:24:39.707Z,17.23
2022-09-17T05:27:07.120Z,14.63
2022-09-17T05:29:33.510Z,15.15
2022-09-17T05:32:00.008Z,14.93
2022-09-17T05:34:26.452Z,10.98
2022-09-17T05:36:52.981Z,13.50
2022-09-17T05:39:21.331Z,17.40
2022-09-17T05:41:47.705Z,15.65
2022-09-17T05:44:17.961Z,15.98
2022-09-17T05:46:45.541Z,14.77
2022-09-17T05:49:12.954Z,14.65
2022-09-17T05:51:39.558Z,18.42
2022-09-17T05:54:06.264Z,14.77
2022-09-17T05:56:32.831Z,15.98
2022-09-17T05:58:59.407Z,17.13
2022-09-17T06:01:26.295Z,22.13
2022-09-17T06:03:53.761Z,16.45
2022-09-17T06:06:20.308Z,20.75
2022-09-17T06:08:46.835Z,20.23
2022-09-17T06:11:13.526Z,26.35
2022-09-17T06:13:40.027Z,22.63
2022-09-17T06:16:06.574Z,23.83
2022-09-17T06:18:33.046Z,23.70
2022-09-17T06:21:03.984Z,28.13
2022-09-17T06:23:37.242Z,25.63
2022-09-17T06:26:05.652Z,22.48
2022-09-17T06:28:32.556Z,29.02
2022-09-17T06:31:04.088Z,26.35
2022-09-17T06:33:31.863Z,21.58
2022-09-17T06:36:04.162Z,24.95
2022-09-17T06:38:33.174Z,27.88
2022-09-17T06:40:59.693Z,31.33
2022-09-17T06:43:26.675Z,32.05
2022-09-17T06:46:00.794Z,28.70
2022-09-17T06:48:28.319Z,25.88
2022-09-17T06:50:55.962Z,31.98
2022-09-17T06:53:23.715Z,29.17
2022-09-17T06:55:51.007Z,31.38
2022-09-17T06:58:17.667Z,18.85
2022-09-17T07:00:44.243Z,27.75
2022-09-17T07:03:10.805Z,39.75
2022-09-17T07:05:37.202Z,28.73
2022-09-17T07:08:04.640Z,20.77
2022-09-17T07:10:31.830Z,22.13
2022-09-17T07:12:59.348Z,23.55
2022-09-17T07:15:25.984Z,30.23
2022-09-17T07:17:52.483Z,30.02
2022-09-17T07:20:19.261Z,30.45
2022-09-17T07:22:45.732Z,23.27
2022-09-17T07:25:13.444Z,23.33
2022-09-17T07:27:39.910Z,18.77
2022-09-17T07:30:07.057Z,22.48
2022-09-17T07:32:33.645Z,22.20
2022-09-17T07:35:00.046Z,25.35
2022-09-17T07:37:26.650Z,21.85
2022-09-17T07:39:53.075Z,23.48
2022-09-17T07:42:19.495Z,19.63
2022-09-17T07:44:46.863Z,22.55
2022-09-17T07:47:13.335Z,30.17
2022-09-17T07:49:39.750Z,22.20
2022-09-17T07:52:06.577Z,30.02
2022-09-17T07:54:38.997Z,26.45
2022-09-17T07:57:05.828Z,25.02
2022-09-17T07:59:32.360Z,25.10
2022-09-17T08:01:59.148Z,19.02
2022-09-17T08:04:26.005Z,33.80
2022-09-17T08:06:52.441Z,22.27
2022-09-17T08:09:18.912Z,22.70
2022-09-17T08:11:55.650Z,21.65
2022-09-17T08:14:26.961Z,25.90
2022-09-17T08:16:55.758Z,18.83
2022-09-17T08:19:22.257Z,20.98
2022-09-17T08:21:48.745Z,16.83
2022-09-17T08:24:15.305Z,28.33
2022-09-17T08:26:41.939Z,19.38
2022-09-17T08:29:08.554Z,22.20
2022-09-17T08:31:35.074Z,17.65
2022-09-17T08:34:01.716Z,19.70
2022-09-17T08:36:28.618Z,22.70
2022-09-17T08:38:55.910Z,20.17
2022-09-17T08:41:44.102Z,14.60
2022-09-17T08:44:22.390Z,15.07
2022-09-17T08:46:57.957Z,19.08
2022-09-17T08:49:36.692Z,18.45
2022-09-17T08:52:10.124Z,18.60
2022-09-17T08:54:55.568Z,19.65
2022-09-17T08:57:36.306Z,20.85
2022-09-17T09:00:18.659Z,21.55
2022-09-17T09:03:00.365Z,11.45
2022-09-17T09:08:04.540Z,16.88
2022-09-17T09:10:46.543Z,21.50
2022-09-17T09:13:17.141Z,26.50
2022-09-17T09:15:53.513Z,23.02
2022-09-17T09:18:22.898Z,17.38
2022-09-17T09:21:25.566Z,22.00
2022-09-17T09:24:07.758Z,13.73
2022-09-17T09:26:40.061Z,16.80
2022-09-17T09:29:21.173Z,16.70
2022-09-17T09:31:55.900Z,15.77
2022-09-17T09:34:23.836Z,17.08
2022-09-17T09:36:51.764Z,16.23
2022-09-17T09:39:25.402Z,19.33
2022-09-17T09:42:27.146Z,22.05
2022-09-17T09:44:53.696Z,22.98
2022-09-17T09:47:26.348Z,11.68
2022-09-17T09:50:05.564Z,13.35
2022-09-17T09:52:59.576Z,14.98
2022-09-17T09:56:04.227Z,24.98
2022-09-17T09:58:39.259Z,13.82
2022-09-17T10:01:14.164Z,17.92
2022-09-17T10:03:42.258Z,13.35
2022-09-17T10:06:10.601Z,14.60
2022-09-17T10:08:40.124Z,14.60
2022-09-17T10:11:12.100Z,13.80
2022-09-17T10:13:40.762Z,11.90
2022-09-17T10:16:42.450Z,10.00
2022-09-17T10:19:08.794Z,11.05
2022-09-17T10:21:37.912Z,13.88
2022-09-17T10:24:14.340Z,16.33
2022-09-17T10:26:40.822Z,13.85
2022-09-17T10:29:14.637Z,12.13
2022-09-17T10:31:56.096Z,12.23
2022-09-17T10:34:28.842Z,8.52
2022-09-17T10:36:56.688Z,14.00
2022-09-17T10:39:32.609Z,16.00
2022-09-17T10:42:15.663Z,23.27
2022-09-17T10:45:02.333Z,19.30
2022-09-17T10:47:37.342Z,13.20
2022-09-17T10:50:22.046Z,18.27
2022-09-17T10:52:51.833Z,16.75
2022-09-17T10:55:39.359Z,17.67
2022-09-17T10:58:08.667Z,17.70
2022-09-17T11:00:59.305Z,13.27
2022-09-17T11:03:53.562Z,16.17
2022-09-17T11:07:05.801Z,18.35
2022-09-17T11:09:52.689Z,12.32
2022-09-17T11:12:34.360Z,12.10
2022-09-17T11:15:13.747Z,11.98
2022-09-17T11:18:07.538Z,10.48
2022-09-17T11:20:56.788Z,10.30
2022-09-17T11:23:38.275Z,8.77
2022-09-17T11:26:11.668Z,13.57
2022-09-17T11:29:29.081Z,12.85
2022-09-17T11:32:13.606Z,12.35
2022-09-17T11:34:51.293Z,11.25
2022-09-17T11:37:27.015Z,9.82
2022-09-17T11:40:15.216Z,15.23
2022-09-17T11:42:48.400Z,11.40
2022-09-17T11:45:20.303Z,16.27
2022-09-17T11:47:56.282Z,12.90
2022-09-17T11:50:29.657Z,10.18
2022-09-17T11:53:14.977Z,9.48
2022-09-17T11:55:55.658Z,7.43
2022-09-17T11:58:47.909Z,13.10
2022-09-17T12:01:26.047Z,9.85
2022-09-17T12:04:01.728Z,10.50
2022-09-17T12:06:40.304Z,8.68
2022-09-17T12:09:17.079Z,5.95
2022-09-17T12:11:59.277Z,7.65
2022-09-17T12:14:51.981Z,12.27
2022-09-17T12:17:39.939Z,11.07
2022-09-17T12:20:15.262Z,9.82
2022-09-17T12:22:46.017Z,7.10
2022-09-17T12:25:13.261Z,9.17
2022-09-17T12:28:01.480Z,5.53
2022-09-17T12:30:40.771Z,6.65
2022-09-17T12:33:28.957Z,8.18
2022-09-17T12:36:22.261Z,8.25
2022-09-17T12:38:51.591Z,10.68
2022-09-17T12:41:36.103Z,6.95
2022-09-17T12:44:30.283Z,12.20
2022-09-17T12:47:13.275Z,11.18
2022-09-17T12:49:50.252Z,8.13
2022-09-17T12:52:26.151Z,6.95
2022-09-17T12:55:14.765Z,7.70
2022-09-17T12:58:01.702Z,8.75
2022-09-17T13:00:41.405Z,9.40
2022-09-17T13:03:14.933Z,13.15
2022-09-17T13:06:03.650Z,12.23
2022-09-17T13:09:09.201Z,7.50
2022-09-17T13:12:00.802Z,6.07
2022-09-17T13:15:07.437Z,5.00
2022-09-17T13:17:46.692Z,10.45
2022-09-17T13:20:15.830Z,7.80
2022-09-17T13:22:54.334Z,6.07
2022-09-17T13:25:22.260Z,7.25
2022-09-17T13:27:50.518Z,8.52
2022-09-17T13:30:18.827Z,10.65
2022-09-17T13:32:47.697Z,8.20
2022-09-17T13:35:16.911Z,8.43
2022-09-17T13:37:45.699Z,8.77
2022-09-17T13:40:34.966Z,8.68
2022-09-17T13:43:04.572Z,10.85
2022-09-17T13:45:33.775Z,5.68
2022-09-17T13:48:08.011Z,11.07
2022-09-17T13:50:43.252Z,12.48
2022-09-17T13:53:12.458Z,7.60
2022-09-17T13:55:42.958Z,15.73
2022-09-17T13:58:28.031Z,6.32
2022-09-17T14:01:00.146Z,9.63
2022-09-17T14:03:44.331Z,12.40
2022-09-17T14:06:14.848Z,9.80
2022-09-17T14:08:44.156Z,12.65
2022-09-17T14:11:22.518Z,11.63
2022-09-17T14:13:49.927Z,10.63
2022-09-17T14:16:40.654Z,14.02
2022-09-17T14:19:16.483Z,11.13
2022-09-17T14:21:46.360Z,13.82
2022-09-17T14:24:33.991Z,9.02
2022-09-17T14:27:22.119Z,11.43
2022-09-17T14:30:06.952Z,11.65
2022-09-17T14:32:51.686Z,12.45
2022-09-17T14:35:29.217Z,12.80
2022-09-17T14:38:00.280Z,9.93
2022-09-17T14:40:28.292Z,11.38
2022-09-17T14:42:57.732Z,8.85
2022-09-17T14:45:31.732Z,9.10
2022-09-17T14:48:30.683Z,7.22
2022-09-17T14:51:18.827Z,6.00
2022-09-17T14:53:49.568Z,6.65
2022-09-17T14:56:22.963Z,9.27
2022-09-17T14:58:54.166Z,8.32
2022-09-17T15:01:24.772Z,5.65
2022-09-17T15:04:20.186Z,6.35
2022-09-17T15:06:46.807Z,6.68
2022-09-17T15:09:25.451Z,6.82
2022-09-17T15:11:58.242Z,3.15
2022-09-17T15:14:33.599Z,4.00
2022-09-17T15:17:03.222Z,3.60
2022-09-17T15:19:42.763Z,5.45
2022-09-17T15:22:30.538Z,3.20
2022-09-17T15:25:02.568Z,2.28
2022-09-17T15:27:34.075Z,4.22
2022-09-17T15:30:06.001Z,6.35
2022-09-17T15:32:33.626Z,2.88
2022-09-17T15:35:15.457Z,5.55
2022-09-17T15:40:34.670Z,2.85
2022-09-17T15:43:26.922Z,8.23
2022-09-17T15:45:54.299Z,1.70
2022-09-17T15:48:35.646Z,5.63
2022-09-17T15:51:04.486Z,4.38
2022-09-17T15:53:32.773Z,6.82
2022-09-17T15:56:07.653Z,4.43
2022-09-17T15:58:51.117Z,7.13
2022-09-17T16:01:17.618Z,6.72
2022-09-17T16:03:44.499Z,9.38
2022-09-17T16:06:32.818Z,3.45
2022-09-17T16:09:00.917Z,7.32
2022-09-17T16:11:30.411Z,2.60
2022-09-17T16:13:58.521Z,6.97
2022-09-17T16:16:34.003Z,11.23
2022-09-17T16:19:00.670Z,5.05
2022-09-17T16:21:27.545Z,7.60
2022-09-17T16:23:55.154Z,5.03
2022-09-17T16:26:24.979Z,9.30
2022-09-17T16:28:54.714Z,4.25
2022-09-17T16:31:21.304Z,6.15
2022-09-17T16:33:47.900Z,3.42
2022-09-17T16:36:16.895Z,4.63
2022-09-17T16:38:43.354Z,4.53
2022-09-17T16:41:09.989Z,4.25
2022-09-17T16:43:38.327Z,7.50
2022-09-17T16:46:10.536Z,4.80
2022-09-17T16:48:37.674Z,4.03
2022-09-17T16:51:08.638Z,6.68
2022-09-17T16:53:35.116Z,5.75
2022-09-17T16:56:01.831Z,6.78
2022-09-17T16:58:28.317Z,3.20
2022-09-17T17:00:54.938Z,5.32
2022-09-17T17:03:21.588Z,7.55
2022-09-17T17:05:48.125Z,5.50
2022-09-17T17:08:14.703Z,8.60
2022-09-17T17:10:41.486Z,5.00
2022-09-17T17:13:07.896Z,3.55
2022-09-17T17:15:34.542Z,6.28
2022-09-17T17:18:01.116Z,7.13
2022-09-17T17:20:27.665Z,6.05
2022-09-17T17:22:55.315Z,10.05
2022-09-17T17:25:23.602Z,7.97
2022-09-17T17:27:50.314Z,3.55
2022-09-17T17:30:17.514Z,5.05
2022-09-17T17:32:49.177Z,4.80
2022-09-17T17:35:15.962Z,4.15
2022-09-17T17:37:42.664Z,6.05
2022-09-17T17:40:10.354Z,9.05
2022-09-17T17:42:39.339Z,11.30
2022-09-17T17:45:07.611Z,11.15
2022-09-17T17:47:34.390Z,3.25
2022-09-17T17:50:00.934Z,5.15
2022-09-17T17:52:27.991Z,3.28
2022-09-17T17:54:54.423Z,9.80
2022-09-17T17:57:21.067Z,3.67
2022-09-17T17:59:47.738Z,5.47
2022-09-17T18:02:14.387Z,7.55
2022-09-17T18:04:41.051Z,6.85
2022-09-17T18:07:07.742Z,4.55
2022-09-17T18:09:34.313Z,2.70
2022-09-17T18:12:00.793Z,8.98
2022-09-17T18:14:27.497Z,7.43
2022-09-17T18:16:54.341Z,3.95
2022-09-17T18:19:20.929Z,9.40
2022-09-17T18:21:47.455Z,8.88
2022-09-17T18:24:13.981Z,5.82
2022-09-17T18:26:40.450Z,9.88
2022-09-17T18:29:08.161Z,5.10
2022-09-17T18:31:35.344Z,6.47
2022-09-17T18:34:04.931Z,5.05
2022-09-17T18:36:34.063Z,4.13
2022-09-17T18:39:56.927Z,5.65
2022-09-17T18:41:49.025Z,7.32
2022-09-17T18:44:15.862Z,5.05
2022-09-17T18:46:42.714Z,5.95
2022-09-17T18:49:09.315Z,4.38
2022-09-17T18:51:35.781Z,5.60
2022-09-17T18:54:03.938Z,5.18
2022-09-17T18:56:35.068Z,4.32
2022-09-17T18:59:07.144Z,5.00
2022-09-17T19:01:34.558Z,6.68
2022-09-17T19:04:01.189Z,3.83
2022-09-17T19:06:28.147Z,3.95
2022-09-17T19:08:58.893Z,4.07
2022-09-17T19:11:25.491Z,7.40
2022-09-17T19:13:52.121Z,5.03
2022-09-17T19:16:18.572Z,5.90
2022-09-17T19:18:45.155Z,5.35
2022-09-17T19:21:14.447Z,5.13
2022-09-17T19:23:42.855Z,4.05
2022-09-17T19:26:12.772Z,5.15
2022-09-17T19:28:39.545Z,3.58
2022-09-17T19:31:08.411Z,4.82
2022-09-17T19:33:35.235Z,5.88
2022-09-17T19:36:04.135Z,3.60
2022-09-17T19:38:30.622Z,4.35
2022-09-17T19:41:02.964Z,4.53
2022-09-17T19:43:30.048Z,6.10
2022-09-17T19:46:05.970Z,4.88
2022-09-17T19:48:35.721Z,7.53
2022-09-17T19:51:03.059Z,5.18
2022-09-17T19:53:29.533Z,5.07
2022-09-17T19:55:55.946Z,4.43
2022-09-17T19:58:22.390Z,8.65
2022-09-17T20:00:54.878Z,9.90
2022-09-17T20:03:21.461Z,6.60
2022-09-17T20:05:47.954Z,6.53
2022-09-17T20:08:14.468Z,7.32
2022-09-17T20:10:40.919Z,9.70
2022-09-17T20:13:07.370Z,6.03
2022-09-17T20:15:35.691Z,5.68
2022-09-17T20:18:02.950Z,8.20
2022-09-17T20:20:29.439Z,9.20
2022-09-17T20:22:56.166Z,6.13
2022-09-17T20:25:25.454Z,7.43
2022-09-17T20:27:53.238Z,8.32
2022-09-17T20:30:19.666Z,9.20
2022-09-17T20:32:46.221Z,8.52
2022-09-17T20:35:12.670Z,3.20
2022-09-17T20:40:25.704Z,14.10
2022-09-17T20:42:52.212Z,7.20
2022-09-17T20:45:18.638Z,9.10
2022-09-17T20:47:45.134Z,8.65
2022-09-17T20:50:11.575Z,12.02
2022-09-17T20:52:38.010Z,10.18
2022-09-17T20:55:04.873Z,11.25
2022-09-17T20:57:31.536Z,10.85
2022-09-17T21:00:00.757Z,11.68
2022-09-17T21:02:27.593Z,10.02
2022-09-17T21:04:54.138Z,9.85
2022-09-17T21:07:20.713Z,14.15
2022-09-17T21:09:47.295Z,10.07
2022-09-17T21:12:13.818Z,14.68
2022-09-17T21:14:40.229Z,12.18
2022-09-17T21:17:06.669Z,13.15
2022-09-17T21:19:33.174Z,9.13
2022-09-17T21:21:59.662Z,8.02
2022-09-17T21:24:26.142Z,11.82
2022-09-17T21:26:54.046Z,13.27
2022-09-17T21:29:20.745Z,9.88
2022-09-17T21:31:47.409Z,10.52
2022-09-17T21:34:14.722Z,12.00
2022-09-17T21:36:44.281Z,7.88
2022-09-17T21:39:16.277Z,7.05
2022-09-17T21:41:44.024Z,10.25
2022-09-17T21:44:12.032Z,7.43
2022-09-17T21:46:38.715Z,6.13
2022-09-17T21:49:05.821Z,4.40
2022-09-17T21:51:33.987Z,10.18
2022-09-17T21:54:06.877Z,7.40
2022-09-17T21:56:33.879Z,9.95
2022-09-17T21:59:02.987Z,8.80
